createdAt,value
2022-08-28T00:02:03.519Z,15.85
2022-08-28T00:04:30.946Z,17.63
2022-08-28T00:06:58.668Z,17.98
2022-08-28T00:09:26.568Z,15.32
2022-08-28T00:11:56.934Z,17.60
2022-08-28T00:14:25.876Z,14.20
2022-08-28T00:16:53.248Z,15.95
2022-08-28T00:19:22.944Z,17.77
2022-08-28T00:21:51.161Z,16.08
2022-08-28T00:24:18.692Z,15.95
2022-08-28T00:27:04.868Z,19.38
2022-08-28T00:29:32.930Z,15.55
2022-08-28T00:32:01.114Z,14.07
2022-08-28T00:34:33.356Z,12.32
2022-08-28T00:37:01.795Z,14.90
2022-08-28T00:39:29.563Z,15.18
2022-08-28T00:41:58.004Z,9.68
2022-08-28T00:44:28.876Z,13.07
2022-08-28T00:46:59.445Z,13.45
2022-08-28T00:49:34.133Z,13.38
2022-08-28T00:52:12.661Z,11.82
2022-08-28T00:54:58.426Z,12.65
2022-08-28T00:57:38.959Z,15.52
2022-08-28T01:00:13.276Z,14.00
2022-08-28T01:02:42.121Z,10.43
2022-08-28T01:05:10.187Z,10.35
2022-08-28T01:07:38.607Z,10.82
2022-08-28T01:10:10.398Z,9.85
2022-08-28T01:12:38.297Z,10.30
2022-08-28T01:15:13.968Z,10.15
2022-08-28T01:17:47.830Z,11.30
2022-08-28T01:20:19.456Z,12.80
2022-08-28T01:23:05.314Z,8.95
2022-08-28T01:25:35.401Z,9.75
2022-08-28T01:28:05.954Z,7.72
2022-08-28T01:30:34.207Z,9.68
2022-08-28T01:33:01.664Z,8.32
2022-08-28T01:35:34.615Z,9.43
2022-08-28T01:38:02.241Z,13.73
2022-08-28T01:40:35.215Z,12.63
2022-08-28T01:43:19.811Z,5.63
2022-08-28T01:45:53.052Z,7.97
2022-08-28T01:48:22.399Z,7.23
2022-08-28T01:50:50.917Z,10.32
2022-08-28T01:53:20.709Z,5.20
2022-08-28T01:55:53.635Z,6.68
2022-08-28T01:58:23.082Z,6.50
2022-08-28T02:00:53.783Z,9.23
2022-08-28T02:03:23.818Z,7.00
2022-08-28T02:05:51.388Z,8.00
2022-08-28T02:08:18.579Z,5.50
2022-08-28T02:10:46.415Z,6.88
2022-08-28T02:13:14.249Z,7.93
2022-08-28T02:15:43.201Z,7.40
2022-08-28T02:18:11.054Z,9.52
2022-08-28T02:20:38.985Z,8.13
2022-08-28T02:23:06.885Z,7.78
2022-08-28T02:25:35.526Z,4.18
2022-08-28T02:28:02.891Z,5.28
2022-08-28T02:30:32.046Z,4.18
2022-08-28T02:32:59.476Z,5.28
2022-08-28T02:35:26.858Z,12.50
2022-08-28T02:37:55.416Z,6.68
2022-08-28T02:40:24.071Z,10.00
2022-08-28T02:42:52.351Z,7.68
2022-08-28T02:45:20.327Z,8.00
2022-08-28T02:47:51.782Z,7.38
2022-08-28T02:50:22.699Z,7.78
2022-08-28T02:52:51.955Z,7.25
2022-08-28T02:55:21.437Z,5.95
2022-08-28T02:57:48.949Z,8.45
2022-08-28T03:00:20.387Z,7.85
2022-08-28T03:02:49.796Z,4.90
2022-08-28T03:05:21.211Z,4.40
2022-08-28T03:07:49.186Z,5.07
2022-08-28T03:10:17.406Z,7.25
2022-08-28T03:12:44.638Z,3.60
2022-08-28T03:15:12.562Z,7.50
2022-08-28T03:17:40.272Z,6.60
2022-08-28T03:20:11.366Z,3.42
2022-08-28T03:22:59.066Z,3.17
2022-08-28T03:25:27.301Z,3.65
2022-08-28T03:27:55.205Z,7.70
2022-08-28T03:30:23.887Z,3.67
2022-08-28T03:32:51.670Z,4.95
2022-08-28T03:35:19.139Z,8.52
2022-08-28T03:37:46.750Z,8.70
2022-08-28T03:40:14.955Z,4.32
2022-08-28T03:42:42.283Z,5.90
2022-08-28T03:45:18.996Z,5.28
2022-08-28T03:47:46.830Z,4.53
2022-08-28T03:50:14.408Z,5.85
2022-08-28T03:52:41.891Z,4.90
2022-08-28T03:55:12.251Z,4.93
2022-08-28T03:57:39.972Z,6.45
2022-08-28T04:00:11.189Z,3.92
2022-08-28T04:02:42.677Z,3.53
2022-08-28T04:05:11.290Z,6.13
2022-08-28T04:07:39.565Z,4.15
2022-08-28T04:10:07.528Z,3.67
2022-08-28T04:12:36.189Z,5.75
2022-08-28T04:15:07.166Z,4.78
2022-08-28T04:17:37.068Z,10.43
2022-08-28T04:20:05.056Z,4.20
2022-08-28T04:22:33.210Z,6.15
2022-08-28T04:25:01.325Z,7.03
2022-08-28T04:27:28.716Z,5.97
2022-08-28T04:29:56.096Z,5.07
2022-08-28T04:32:23.494Z,2.97
2022-08-28T04:34:51.579Z,5.82
2022-08-28T04:37:19.063Z,7.57
2022-08-28T04:39:46.296Z,2.83
2022-08-28T04:42:14.984Z,7.40
2022-08-28T04:44:42.460Z,4.00
2022-08-28T04:47:09.684Z,3.80
2022-08-28T04:49:37.295Z,4.00
2022-08-28T04:52:05.119Z,5.68
2022-08-28T04:54:35.979Z,3.00
2022-08-28T04:57:06.429Z,4.05
2022-08-28T04:59:33.815Z,6.93
2022-08-28T05:02:01.691Z,7.40
2022-08-28T05:04:29.107Z,3.60
2022-08-28T05:06:56.242Z,5.15
2022-08-28T05:09:23.461Z,5.78
2022-08-28T05:11:51.572Z,3.38
2022-08-28T05:14:20.354Z,4.70
2022-08-28T05:16:57.889Z,9.13
2022-08-28T05:19:28.069Z,6.75
2022-08-28T05:21:55.627Z,7.43
2022-08-28T05:24:22.879Z,3.63
2022-08-28T05:26:50.352Z,4.20
2022-08-28T05:29:18.113Z,7.72
2022-08-28T05:31:46.420Z,5.05
2022-08-28T05:34:15.301Z,4.55
2022-08-28T05:36:42.976Z,5.72
2022-08-28T05:39:13.905Z,5.57
2022-08-28T05:41:44.178Z,2.95
2022-08-28T05:44:15.656Z,8.20
2022-08-28T05:46:47.786Z,5.32
2022-08-28T05:49:17.964Z,6.53
2022-08-28T05:51:46.410Z,3.40
2022-08-28T05:54:15.056Z,5.90
2022-08-28T05:56:44.317Z,3.55
2022-08-28T05:59:13.364Z,6.22
2022-08-28T06:01:50.964Z,6.55
2022-08-28T06:04:27.569Z,6.82
2022-08-28T06:06:55.698Z,6.93
2022-08-28T06:09:29.592Z,6.10
2022-08-28T06:11:59.839Z,3.03
2022-08-28T06:14:27.780Z,7.93
2022-08-28T06:16:56.639Z,6.68
2022-08-28T06:19:26.870Z,4.95
2022-08-28T06:22:01.089Z,7.78
2022-08-28T06:24:34.692Z,5.00
2022-08-28T06:27:02.158Z,7.07
2022-08-28T06:29:29.922Z,14.77
2022-08-28T06:32:01.137Z,4.38
2022-08-28T06:34:29.769Z,5.78
2022-08-28T06:36:56.979Z,5.55
2022-08-28T06:39:24.624Z,7.55
2022-08-28T06:41:51.970Z,7.75
2022-08-28T06:44:21.705Z,5.00
2022-08-28T06:46:52.198Z,7.07
2022-08-28T06:49:19.491Z,14.88
2022-08-28T06:51:46.900Z,11.20
2022-08-28T06:54:19.772Z,3.85
2022-08-28T06:56:49.899Z,9.52
2022-08-28T06:59:17.276Z,8.57
2022-08-28T07:01:44.559Z,5.40
2022-08-28T07:04:14.859Z,6.03
2022-08-28T07:06:47.067Z,7.75
2022-08-28T07:09:14.830Z,11.07
2022-08-28T07:11:46.821Z,4.47
2022-08-28T07:14:14.110Z,9.80
2022-08-28T07:16:42.263Z,11.65
2022-08-28T07:19:12.186Z,16.80
2022-08-28T07:21:42.238Z,19.20
2022-08-28T07:24:12.632Z,10.98
2022-08-28T07:26:41.229Z,7.55
2022-08-28T07:29:10.835Z,10.70
2022-08-28T07:31:50.848Z,7.28
2022-08-28T07:34:19.965Z,12.18
2022-08-28T07:36:48.330Z,10.82
2022-08-28T07:39:16.261Z,14.18
2022-08-28T07:41:47.258Z,9.68
2022-08-28T07:44:33.866Z,14.57
2022-08-28T07:47:04.442Z,16.48
2022-08-28T07:49:34.175Z,15.07
2022-08-28T07:52:02.018Z,14.60
2022-08-28T07:54:29.378Z,11.80
2022-08-28T07:56:56.777Z,10.02
2022-08-28T07:59:24.467Z,14.95
2022-08-28T08:01:52.383Z,17.95
2022-08-28T08:04:21.869Z,15.05
2022-08-28T08:06:54.380Z,9.07
2022-08-28T08:09:24.498Z,12.35
2022-08-28T08:11:51.953Z,8.13
2022-08-28T08:14:19.241Z,8.00
2022-08-28T08:16:48.139Z,16.20
2022-08-28T08:19:16.816Z,13.55
2022-08-28T08:21:46.665Z,11.63
2022-08-28T08:24:21.582Z,12.70
2022-08-28T08:26:58.889Z,12.30
2022-08-28T08:29:30.033Z,12.40
2022-08-28T08:31:58.972Z,9.05
2022-08-28T08:34:26.417Z,17.90
2022-08-28T08:36:54.405Z,11.00
2022-08-28T08:39:21.603Z,22.10
2022-08-28T08:41:53.388Z,11.88
2022-08-28T08:44:34.022Z,19.23
2022-08-28T08:47:20.036Z,15.07
2022-08-28T08:49:58.773Z,18.88
2022-08-28T08:52:51.386Z,16.95
2022-08-28T08:55:31.605Z,18.58
2022-08-28T08:58:08.195Z,14.30
2022-08-28T09:00:52.502Z,14.23
2022-08-28T09:03:44.307Z,17.83
2022-08-28T09:06:26.004Z,25.02
2022-08-28T09:08:59.343Z,19.33
2022-08-28T09:12:08.366Z,22.17
2022-08-28T09:14:54.009Z,22.63
2022-08-28T09:17:27.787Z,23.85
2022-08-28T09:19:55.313Z,16.45
2022-08-28T09:22:22.974Z,15.23
2022-08-28T09:24:50.455Z,13.15
2022-08-28T09:27:26.951Z,23.42
2022-08-28T09:30:07.220Z,22.58
2022-08-28T09:32:56.535Z,16.05
2022-08-28T09:35:29.934Z,19.00
2022-08-28T09:38:18.406Z,26.90
2022-08-28T09:41:04.529Z,21.42
2022-08-28T09:43:33.780Z,18.23
2022-08-28T09:46:08.335Z,22.88
2022-08-28T09:48:47.136Z,22.83
2022-08-28T09:51:29.776Z,18.77
2022-08-28T09:54:02.932Z,18.27
2022-08-28T09:56:40.276Z,12.38
2022-08-28T09:59:33.930Z,19.33
2022-08-28T10:02:43.034Z,18.00
2022-08-28T10:05:18.785Z,20.45
2022-08-28T10:08:04.727Z,12.75
2022-08-28T10:10:37.336Z,25.08
2022-08-28T10:13:18.194Z,22.65
2022-08-28T10:16:04.150Z,18.02
2022-08-28T10:18:44.567Z,19.95
2022-08-28T10:21:24.404Z,28.98
2022-08-28T10:24:26.469Z,27.70
2022-08-28T10:27:12.176Z,13.02
2022-08-28T10:30:08.892Z,26.42
2022-08-28T10:32:56.863Z,18.83
2022-08-28T10:35:40.297Z,27.83
2022-08-28T10:38:18.197Z,24.80
2022-08-28T10:41:05.064Z,25.58
2022-08-28T10:43:38.420Z,21.75
2022-08-28T10:46:13.714Z,23.50
2022-08-28T10:48:46.610Z,25.85
2022-08-28T10:51:34.829Z,23.97
2022-08-28T10:54:19.408Z,41.35
2022-08-28T10:56:56.648Z,29.63
2022-08-28T10:59:28.249Z,22.80
2022-08-28T11:01:56.905Z,24.20
2022-08-28T11:04:25.856Z,18.00
2022-08-28T11:07:03.825Z,23.95
2022-08-28T11:09:35.549Z,27.30
2022-08-28T11:12:10.313Z,24.48
2022-08-28T11:14:48.412Z,29.40
2022-08-28T11:17:23.011Z,18.00
2022-08-28T11:20:22.916Z,25.10
2022-08-28T11:22:58.088Z,25.20
2022-08-28T11:25:59.907Z,24.85
2022-08-28T11:28:36.726Z,21.77
2022-08-28T11:31:06.957Z,27.63
2022-08-28T11:33:44.907Z,20.50
2022-08-28T11:36:32.861Z,23.00
2022-08-28T11:39:21.000Z,22.60
2022-08-28T11:42:14.028Z,20.95
2022-08-28T11:44:46.115Z,19.13
2022-08-28T11:47:32.097Z,23.00
2022-08-28T11:50:33.748Z,22.70
2022-08-28T11:53:18.760Z,19.45
2022-08-28T11:56:07.368Z,21.00
2022-08-28T11:58:54.702Z,23.00
2022-08-28T12:01:32.314Z,16.85
2022-08-28T12:04:08.096Z,23.65
2022-08-28T12:06:44.793Z,29.20
2022-08-28T12:09:31.726Z,29.15
2022-08-28T12:12:05.232Z,25.55
2022-08-28T12:17:06.120Z,23.48
2022-08-28T12:19:52.553Z,24.40
2022-08-28T12:22:39.739Z,25.92
2022-08-28T12:25:18.694Z,17.95
2022-08-28T12:27:46.182Z,28.70
2022-08-28T12:30:28.609Z,21.00
2022-08-28T12:33:03.143Z,22.50
2022-08-28T12:35:30.601Z,16.45
2022-08-28T12:38:02.236Z,29.25
2022-08-28T12:40:41.848Z,25.73
2022-08-28T12:43:15.238Z,21.75
2022-08-28T12:48:18.766Z,24.75
2022-08-28T12:50:46.247Z,17.45
2022-08-28T12:53:16.847Z,27.83
2022-08-28T12:55:46.505Z,24.10
2022-08-28T12:58:28.099Z,26.08
2022-08-28T13:01:06.877Z,31.83
2022-08-28T13:03:34.305Z,22.70
2022-08-28T13:06:07.786Z,34.65
2022-08-28T13:08:36.989Z,25.05
2022-08-28T13:11:05.056Z,23.98
2022-08-28T13:13:45.584Z,23.55
2022-08-28T13:16:35.770Z,35.05
2022-08-28T13:19:06.754Z,21.77
2022-08-28T13:21:35.207Z,20.15
2022-08-28T13:24:23.039Z,24.92
2022-08-28T13:27:15.894Z,22.48
2022-08-28T13:30:04.330Z,23.83
2022-08-28T13:32:34.481Z,21.20
2022-08-28T13:35:21.921Z,20.92
2022-08-28T13:37:50.762Z,25.40
2022-08-28T13:43:16.656Z,27.27
2022-08-28T13:45:46.434Z,26.65
2022-08-28T13:48:17.029Z,24.63
2022-08-28T13:50:49.995Z,18.90
2022-08-28T13:53:20.452Z,23.08
2022-08-28T13:55:51.344Z,21.33
2022-08-28T13:58:18.820Z,26.42
2022-08-28T14:00:48.628Z,25.58
2022-08-28T14:03:35.354Z,19.17
2022-08-28T14:06:14.315Z,26.00
2022-08-28T14:08:44.297Z,25.15
2022-08-28T14:11:14.247Z,28.90
2022-08-28T14:13:47.331Z,22.38
2022-08-28T14:16:25.844Z,19.10
2022-08-28T14:18:53.532Z,21.75
2022-08-28T14:21:22.568Z,24.15
2022-08-28T14:23:50.329Z,24.80
2022-08-28T14:26:17.596Z,25.95
2022-08-28T14:28:45.452Z,24.42
2022-08-28T14:31:14.748Z,25.33
2022-08-28T14:33:45.384Z,15.52
2022-08-28T14:36:24.060Z,20.42
2022-08-28T14:38:54.291Z,26.77
2022-08-28T14:41:23.840Z,19.25
2022-08-28T14:43:51.253Z,23.50
2022-08-28T14:46:24.407Z,21.48
2022-08-28T14:48:52.751Z,31.65
2022-08-28T14:51:19.902Z,26.55
2022-08-28T14:53:47.168Z,29.55
2022-08-28T14:56:14.724Z,28.70
2022-08-28T14:58:41.995Z,18.80
2022-08-28T15:01:09.443Z,28.50
2022-08-28T15:03:37.934Z,27.90
2022-08-28T15:06:08.706Z,21.40
2022-08-28T15:08:37.411Z,30.08
2022-08-28T15:11:10.332Z,24.42
2022-08-28T15:13:38.292Z,34.45
2022-08-28T15:16:15.744Z,28.27
2022-08-28T15:18:45.769Z,19.95
2022-08-28T15:21:28.190Z,23.90
2022-08-28T15:24:00.016Z,27.50
2022-08-28T15:26:28.108Z,23.67
2022-08-28T15:29:02.473Z,25.95
2022-08-28T15:31:31.710Z,22.15
2022-08-28T15:34:03.024Z,21.63
2022-08-28T15:36:30.351Z,28.75
2022-08-28T15:39:18.627Z,27.73
2022-08-28T15:41:47.128Z,26.95
2022-08-28T15:44:15.134Z,21.05
2022-08-28T15:46:49.446Z,24.20
2022-08-28T15:49:18.568Z,22.90
2022-08-28T15:51:45.821Z,22.92
2022-08-28T15:54:13.403Z,25.33
2022-08-28T15:56:41.791Z,26.23
2022-08-28T15:59:10.805Z,25.13
2022-08-28T16:01:38.821Z,25.90
2022-08-28T16:04:07.075Z,19.48
2022-08-28T16:06:35.675Z,18.55
2022-08-28T16:09:05.310Z,21.33
2022-08-28T16:11:33.931Z,12.75
2022-08-28T16:14:06.678Z,19.02
2022-08-28T16:16:34.645Z,22.75
2022-08-28T16:19:02.202Z,19.95
2022-08-28T16:21:29.764Z,32.67
2022-08-28T16:23:56.978Z,25.05
2022-08-28T16:26:24.619Z,26.23
2022-08-28T16:28:53.454Z,34.03
2022-08-28T16:31:21.385Z,23.13
2022-08-28T16:33:49.932Z,23.23
2022-08-28T16:36:18.583Z,25.15
2022-08-28T16:38:48.079Z,29.45
2022-08-28T16:41:23.752Z,28.60
2022-08-28T16:43:55.274Z,26.67
2022-08-28T16:46:26.882Z,24.67
2022-08-28T16:48:54.829Z,25.23
2022-08-28T16:51:22.732Z,20.85
2022-08-28T16:53:49.975Z,14.82
2022-08-28T16:56:18.237Z,22.42
2022-08-28T16:58:46.226Z,23.85
2022-08-28T17:01:14.418Z,18.05
2022-08-28T17:03:42.215Z,14.55
2022-08-28T17:06:20.286Z,15.85
2022-08-28T17:08:48.292Z,19.48
2022-08-28T17:11:16.889Z,20.88
2022-08-28T17:13:44.547Z,18.92
2022-08-28T17:16:13.248Z,18.48
2022-08-28T17:18:48.163Z,20.45
2022-08-28T17:21:38.853Z,35.10
2022-08-28T17:24:07.023Z,23.23
2022-08-28T17:26:34.378Z,19.33
2022-08-28T17:29:03.036Z,15.70
2022-08-28T17:31:30.391Z,18.17
2022-08-28T17:33:57.822Z,14.88
2022-08-28T17:36:33.282Z,38.42
2022-08-28T17:39:08.283Z,31.55
2022-08-28T17:41:35.823Z,26.17
2022-08-28T17:44:03.561Z,24.58
2022-08-28T17:46:36.750Z,32.22
2022-08-28T17:49:06.921Z,26.98
2022-08-28T17:51:43.314Z,31.10
2022-08-28T17:54:14.018Z,41.25
2022-08-28T17:56:42.675Z,29.00
2022-08-28T17:59:12.095Z,31.15
2022-08-28T18:01:39.801Z,31.73
2022-08-28T18:04:07.271Z,31.50
2022-08-28T18:06:34.928Z,29.67
2022-08-28T18:09:02.531Z,39.55
2022-08-28T18:11:29.865Z,27.95
2022-08-28T18:13:57.538Z,30.23
2022-08-28T18:16:30.395Z,29.23
2022-08-28T18:19:00.110Z,38.05
2022-08-28T18:21:31.845Z,24.42
2022-08-28T18:23:59.096Z,34.22
2022-08-28T18:26:26.519Z,18.70
2022-08-28T18:28:53.957Z,28.23
2022-08-28T18:31:21.126Z,19.77
2022-08-28T18:33:48.360Z,19.75
2022-08-28T18:36:16.852Z,38.58
2022-08-28T18:38:45.154Z,27.67
2022-08-28T18:41:12.544Z,28.65
2022-08-28T18:43:42.204Z,24.90
2022-08-28T18:46:10.360Z,28.63
2022-08-28T18:48:38.266Z,37.63
2022-08-28T18:51:07.918Z,31.17
2022-08-28T18:53:35.687Z,28.42
2022-08-28T18:56:03.896Z,30.13
2022-08-28T18:58:33.045Z,35.00
2022-08-28T19:01:02.355Z,37.83
2022-08-28T19:03:30.233Z,38.15
2022-08-28T19:05:59.014Z,38.50
2022-08-28T19:08:27.267Z,40.97
2022-08-28T19:10:54.681Z,37.90
2022-08-28T19:13:22.221Z,26.67
2022-08-28T19:15:53.326Z,27.38
2022-08-28T19:18:20.776Z,27.63
2022-08-28T19:20:48.428Z,29.00
2022-08-28T19:23:17.758Z,35.90
2022-08-28T19:25:46.200Z,28.05
2022-08-28T19:28:14.034Z,33.85
2022-08-28T19:30:42.295Z,37.90
2022-08-28T19:33:12.935Z,35.45
2022-08-28T19:35:41.107Z,39.08
2022-08-28T19:38:08.667Z,36.90
2022-08-28T19:40:36.140Z,42.28
2022-08-28T19:43:03.304Z,40.58
2022-08-28T19:45:33.232Z,41.03
2022-08-28T19:48:00.895Z,34.70
2022-08-28T19:50:28.122Z,35.90
2022-08-28T19:52:55.315Z,41.70
2022-08-28T19:55:26.190Z,40.65
2022-08-28T19:57:54.476Z,25.13
2022-08-28T20:00:26.015Z,31.35
2022-08-28T20:02:53.467Z,24.80
2022-08-28T20:05:22.038Z,23.83
2022-08-28T20:07:50.273Z,33.42
2022-08-28T20:10:18.336Z,38.03
2022-08-28T20:12:48.640Z,43.13
2022-08-28T20:15:19.438Z,43.47
2022-08-28T20:17:49.872Z,33.65
2022-08-28T20:20:20.078Z,47.05
2022-08-28T20:22:47.479Z,36.28
2022-08-28T20:25:18.207Z,37.40
2022-08-28T20:27:45.662Z,36.70
2022-08-28T20:30:13.285Z,43.20
2022-08-28T20:32:41.387Z,29.20
2022-08-28T20:35:12.039Z,32.63
2022-08-28T20:37:42.644Z,38.40
2022-08-28T20:40:14.806Z,36.80
2022-08-28T20:42:42.253Z,36.55
2022-08-28T20:45:10.239Z,37.72
2022-08-28T20:47:37.606Z,34.75
2022-08-28T20:50:05.695Z,32.70
2022-08-28T20:52:33.436Z,36.80
2022-08-28T20:55:00.738Z,33.70
2022-08-28T20:57:30.263Z,24.65
2022-08-28T20:59:58.753Z,43.13
2022-08-28T21:02:29.340Z,44.45
2022-08-28T21:04:56.845Z,47.97
2022-08-28T21:07:25.357Z,47.38
2022-08-28T21:10:05.589Z,49.33
2022-08-28T21:12:39.226Z,57.30
2022-08-28T21:15:10.073Z,61.80
2022-08-28T21:17:37.611Z,38.25
2022-08-28T21:20:10.185Z,40.40
2022-08-28T21:22:40.103Z,40.92
2022-08-28T21:25:10.603Z,38.67
2022-08-28T21:27:38.178Z,44.65
2022-08-28T21:30:07.851Z,39.28
2022-08-28T21:32:36.287Z,35.67
2022-08-28T21:35:05.363Z,33.20
2022-08-28T21:37:32.997Z,31.67
2022-08-28T21:40:01.025Z,33.78
2022-08-28T21:42:29.220Z,32.17
2022-08-28T21:44:56.352Z,34.70
2022-08-28T21:47:24.666Z,32.03
2022-08-28T21:49:54.445Z,35.35
2022-08-28T21:52:24.444Z,41.80
2022-08-28T21:55:08.248Z,31.02
2022-08-28T21:57:35.652Z,37.70
2022-08-28T22:00:05.991Z,41.80
2022-08-28T22:02:34.028Z,30.73
2022-08-28T22:05:01.330Z,35.60
2022-08-28T22:07:31.006Z,32.50
2022-08-28T22:09:58.353Z,47.30
2022-08-28T22:12:26.024Z,45.42
2022-08-28T22:14:54.383Z,48.10
2022-08-28T22:17:21.882Z,39.67
2022-08-28T22:19:49.273Z,40.22
2022-08-28T22:22:35.410Z,37.42
2022-08-28T22:25:03.499Z,32.72
2022-08-28T22:27:34.900Z,31.25
2022-08-28T22:30:02.282Z,24.92
2022-08-28T22:32:30.674Z,24.35
2022-08-28T22:34:58.013Z,24.92
2022-08-28T22:37:25.997Z,45.33
2022-08-28T22:39:53.580Z,24.73
2022-08-28T22:42:21.029Z,29.95
2022-08-28T22:44:48.255Z,51.05
2022-08-28T22:47:15.627Z,37.25
2022-08-28T22:49:46.158Z,28.88
2022-08-28T22:52:13.443Z,44.67
2022-08-28T22:54:40.647Z,56.97
2022-08-28T22:57:09.066Z,89.15
2022-08-28T22:59:36.336Z,67.97
2022-08-28T23:02:04.039Z,42.03
2022-08-28T23:04:31.695Z,50.85
2022-08-28T23:06:59.003Z,63.13
2022-08-28T23:09:26.548Z,64.30
2022-08-28T23:11:53.925Z,59.33
2022-08-28T23:14:21.219Z,79.45
2022-08-28T23:16:49.240Z,86.63
2022-08-28T23:19:19.826Z,69.30
2022-08-28T23:21:47.752Z,76.03
2022-08-28T23:24:16.728Z,77.00
2022-08-28T23:26:45.907Z,68.35
2022-08-28T23:29:14.018Z,90.30
2022-08-28T23:31:41.378Z,71.03
2022-08-28T23:34:08.883Z,76.47
2022-08-28T23:36:36.930Z,89.65
2022-08-28T23:39:07.127Z,53.60
2022-08-28T23:41:34.928Z,80.93
2022-08-28T23:44:08.282Z,65.78
2022-08-28T23:46:36.968Z,73.10
2022-08-28T23:49:09.998Z,59.80
2022-08-28T23:51:37.680Z,62.30
2022-08-28T23:54:05.230Z,79.43
2022-08-28T23:56:33.916Z,75.15
2022-08-28T23:59:01.303Z,71.65
